首页
METAR-TAF:

METAR-TAF

机场 :

赤塔機場

赤塔, 俄罗斯

纬度: 52-05N, 经度: 113-29E, 海拔: 685米

当前天气观测

该预报发布于33分钟前的08:30 UTC
风速10节,风向西转西南
温度 -11°C
湿度 51%
气压 1025 hPa
能见度10公里或以上

METAR: UIAA 190830Z 24005MPS 9999 NSC M11/M19 Q1025 R29/410150 NOSIG RMK QFE709/0946

时间: 18:03 (09:03 UTC)

预报

该预报发布于1小时和3分钟前的08:00 UTC
预报有效从19日的 09点(UTC)到 20日的 09点(UTC)
风速6节,风向西南
能见度10公里或以上

TAF: UIAA 190800Z 1909/2009 23003MPS 9999 NSC

超过4000个机场的气象观测和天气预报(METAR&TAF报告)。

可查询的气象台以黄色和红色小点在地图上表示。

将鼠标移到小点上方,可查看气象台名称。

然后点击查看天气观测和预报。

如需切换地图:点击带黑十字的绿色按钮放大地图;点击带横线的绿色按钮缩小地图;或者点击绿色箭头查看邻近地区的地图。


METAR-TAF: